Terminal Aerodrome Forecast
Issued by NWS

Home | Current Version | Previous Version | Text Only | Print | Product List | Glossary On
Versions: 1 2 3 4 5 6 7 8 9 10 11 12 13 14 15 16 17 18 19 20 21 22
000
FTUS41 KCAR 191120
TAFHUL
TAF
KHUL 191120Z 1912/2012 23005KT P6SM VCSH OVC035
      TEMPO 1916/1920 5SM -SHRASN OVC028
     FM192100 34007KT P6SM VCSH OVC030
     FM200500 33009G16KT P6SM SCT040=

USA.gov is the U.S. government's official web portal to all federal, state and local government web resources and services.